Check out our new PWSWeather beta!
PWSweather.com
Personal Weather Stations
Station Observations
GRD01
Warsaw, LesznoPL 05-084

WarsawLesznoPL 05-084

Lat: 52.257404, Lon: 20.564847

Elevation: 298

Station Type: WH3080

http://pogoda.kampinos.waw.pl

High Low Average
Temperature 85.5°F29.7°C 61.0°F16.1°C 73.0°F22.8°C
Dew Point 60.8°F16.0°C 50.9°F10.5°C 55.6°F13.1°C
Winds 10.7 mph 17.2 kmh Calm Calm 3.0 mph SE4.8 kmh SE
Wind Gusts 16.8 mph27.0 kmh -- 6.0 mph9.7 kmh
Humidity 83% 32% 58%
Pressure 30.33 in1027.1 mb 30.23 in1023.7 mb -
Precipitation 0.00 in0.0 mm - -
Hour Temp Dew Point Humidity Winds Wind Gusts Pressure Precip Precip Rate Daily Precip Total
12:00 AM 62.1°F16.7°C 55.8°F13.2°C 80% 0.7 mph NE1.1 kmh NE 1.6 mph2.6 kmh 30.32 in1026.8 mb 0.00 in0.0 mm 0.00 in0.0 mm 0.00 in0.0 mm
12:15 AM 62.2°F16.8°C 56.0°F13.3°C 80% Calm Calm 2.2 mph3.5 kmh 30.32 in1026.8 mb 0.00 in0.0 mm 0.00 in0.0 mm 0.00 in0.0 mm
12:30 AM 62.6°F17.0°C 56.0°F13.3°C 79% 0.7 mph NE1.1 kmh NE 1.6 mph2.6 kmh 30.32 in1026.8 mb 0.00 in0.0 mm 0.00 in0.0 mm 0.00 in0.0 mm
12:45 AM 62.6°F17.0°C 56.0°F13.3°C 79% Calm Calm 0.7 mph1.1 kmh 30.32 in1026.8 mb 0.00 in0.0 mm 0.00 in0.0 mm 0.00 in0.0 mm
01:00 AM 62.6°F17.0°C 56.0°F13.3°C 79% Calm Calm -- 30.32 in1026.8 mb 0.00 in0.0 mm 0.00 in0.0 mm 0.00 in0.0 mm
01:15 AM 62.8°F17.1°C 56.5°F13.6°C 80% 0.7 mph NE1.1 kmh NE 3.1 mph5.0 kmh 30.33 in1027.1 mb 0.00 in0.0 mm 0.00 in0.0 mm 0.00 in0.0 mm
01:30 AM 63.0°F17.2°C 56.3°F13.5°C 79% 0.7 mph NE1.1 kmh NE 2.2 mph3.5 kmh 30.32 in1026.8 mb 0.00 in0.0 mm 0.00 in0.0 mm 0.00 in0.0 mm
01:45 AM 63.1°F17.3°C 56.2°F13.4°C 78% Calm Calm 1.6 mph2.6 kmh 30.33 in1027.1 mb 0.00 in0.0 mm 0.00 in0.0 mm 0.00 in0.0 mm
02:00 AM 63.0°F17.2°C 56.3°F13.5°C 79% Calm Calm -- 30.33 in1027.1 mb 0.00 in0.0 mm 0.00 in0.0 mm 0.00 in0.0 mm
02:15 AM 63.0°F17.2°C 56.7°F13.7°C 80% 0.7 mph NE1.1 kmh NE 1.6 mph2.6 kmh 30.32 in1026.8 mb 0.00 in0.0 mm 0.00 in0.0 mm 0.00 in0.0 mm
02:30 AM 62.6°F17.0°C 56.3°F13.5°C 80% 0.7 mph NE1.1 kmh NE 2.2 mph3.5 kmh 30.32 in1026.8 mb 0.00 in0.0 mm 0.00 in0.0 mm 0.00 in0.0 mm
02:45 AM 62.4°F16.9°C 56.2°F13.4°C 80% Calm Calm 0.7 mph1.1 kmh 30.33 in1027.1 mb 0.00 in0.0 mm 0.00 in0.0 mm 0.00 in0.0 mm
03:00 AM 62.2°F16.8°C 56.3°F13.5°C 81% 0.7 mph NE1.1 kmh NE 2.2 mph3.5 kmh 30.32 in1026.8 mb 0.00 in0.0 mm 0.00 in0.0 mm 0.00 in0.0 mm
03:15 AM 62.2°F16.8°C 56.3°F13.5°C 81% 0.7 mph NE1.1 kmh NE 2.2 mph3.5 kmh 30.31 in1026.4 mb 0.00 in0.0 mm 0.00 in0.0 mm 0.00 in0.0 mm
03:30 AM 62.2°F16.8°C 56.3°F13.5°C 81% 0.7 mph NE1.1 kmh NE 2.2 mph3.5 kmh 30.31 in1026.4 mb 0.00 in0.0 mm 0.00 in0.0 mm 0.00 in0.0 mm
03:45 AM 62.6°F17.0°C 56.7°F13.7°C 81% 0.7 mph NE1.1 kmh NE 3.1 mph5.0 kmh 30.32 in1026.8 mb 0.00 in0.0 mm 0.00 in0.0 mm 0.00 in0.0 mm
04:00 AM 61.9°F16.6°C 56.0°F13.3°C 81% Calm Calm 2.2 mph3.5 kmh 30.31 in1026.4 mb 0.00 in0.0 mm 0.00 in0.0 mm 0.00 in0.0 mm
04:15 AM 61.5°F16.4°C 55.6°F13.1°C 81% Calm Calm 1.6 mph2.6 kmh 30.32 in1026.8 mb 0.00 in0.0 mm 0.00 in0.0 mm 0.00 in0.0 mm
04:30 AM 61.2°F16.2°C 55.6°F13.1°C 82% Calm Calm 0.7 mph1.1 kmh 30.32 in1026.8 mb 0.00 in0.0 mm 0.00 in0.0 mm 0.00 in0.0 mm
04:45 AM 61.2°F16.2°C 55.6°F13.1°C 82% 0.7 mph SE1.1 kmh SE 3.8 mph6.1 kmh 30.32 in1026.8 mb 0.00 in0.0 mm 0.00 in0.0 mm 0.00 in0.0 mm
05:00 AM 61.0°F16.1°C 55.8°F13.2°C 83% Calm Calm 2.2 mph3.5 kmh 30.32 in1026.8 mb 0.00 in0.0 mm 0.00 in0.0 mm 0.00 in0.0 mm
05:15 AM 61.7°F16.5°C 56.5°F13.6°C 83% 1.6 mph S2.6 kmh S 3.1 mph5.0 kmh 30.32 in1026.8 mb 0.00 in0.0 mm 0.00 in0.0 mm 0.00 in0.0 mm
05:30 AM 62.4°F16.9°C 57.2°F14.0°C 83% 2.2 mph S3.5 kmh S 3.1 mph5.0 kmh 30.32 in1026.8 mb 0.00 in0.0 mm 0.00 in0.0 mm 0.00 in0.0 mm
05:45 AM 63.0°F17.2°C 57.7°F14.3°C 83% 0.7 mph S1.1 kmh S 3.1 mph5.0 kmh 30.32 in1026.8 mb 0.00 in0.0 mm 0.00 in0.0 mm 0.00 in0.0 mm
06:00 AM 63.5°F17.5°C 57.2°F14.0°C 80% 2.2 mph S3.5 kmh S 3.8 mph6.1 kmh 30.32 in1026.8 mb 0.00 in0.0 mm 0.00 in0.0 mm 0.00 in0.0 mm
06:15 AM 64.2°F17.9°C 57.9°F14.4°C 80% Calm Calm 3.8 mph6.1 kmh 30.33 in1027.1 mb 0.00 in0.0 mm 0.00 in0.0 mm 0.00 in0.0 mm
06:30 AM 65.5°F18.6°C 58.8°F14.9°C 79% Calm Calm 4.5 mph7.2 kmh 30.32 in1026.8 mb 0.00 in0.0 mm 0.00 in0.0 mm 0.00 in0.0 mm
06:45 AM 66.6°F19.2°C 58.8°F14.9°C 76% 2.2 mph SSW3.5 kmh SSW 4.5 mph7.2 kmh 30.32 in1026.8 mb 0.00 in0.0 mm 0.00 in0.0 mm 0.00 in0.0 mm
07:00 AM 66.9°F19.4°C 58.7°F14.8°C 75% 3.1 mph W5.0 kmh W 3.8 mph6.1 kmh 30.32 in1026.8 mb 0.00 in0.0 mm 0.00 in0.0 mm 0.00 in0.0 mm
07:15 AM 68.4°F20.2°C 59.0°F15.0°C 72% 1.6 mph S2.6 kmh S 5.4 mph8.7 kmh 30.32 in1026.8 mb 0.00 in0.0 mm 0.00 in0.0 mm 0.00 in0.0 mm
07:30 AM 68.7°F20.4°C 58.9°F14.9°C 71% 0.7 mph SSW1.1 kmh SSW 4.5 mph7.2 kmh 30.32 in1026.8 mb 0.00 in0.0 mm 0.00 in0.0 mm 0.00 in0.0 mm
07:45 AM 69.4°F20.8°C 59.6°F15.3°C 71% 3.1 mph S5.0 kmh S 3.8 mph6.1 kmh 30.33 in1027.1 mb 0.00 in0.0 mm 0.00 in0.0 mm 0.00 in0.0 mm
08:00 AM 70.5°F21.4°C 60.3°F15.7°C 70% 2.2 mph S3.5 kmh S 4.5 mph7.2 kmh 30.33 in1027.1 mb 0.00 in0.0 mm 0.00 in0.0 mm 0.00 in0.0 mm
08:15 AM 70.9°F21.6°C 59.4°F15.2°C 67% 0.7 mph SW1.1 kmh SW 3.8 mph6.1 kmh 30.32 in1026.8 mb 0.00 in0.0 mm 0.00 in0.0 mm 0.00 in0.0 mm
08:30 AM 72.0°F22.2°C 60.8°F16.0°C 68% 2.2 mph SSW3.5 kmh SSW 4.5 mph7.2 kmh 30.33 in1027.1 mb 0.00 in0.0 mm 0.00 in0.0 mm 0.00 in0.0 mm
08:45 AM 73.8°F23.2°C 59.5°F15.3°C 61% Calm Calm 3.8 mph6.1 kmh 30.33 in1027.1 mb 0.00 in0.0 mm 0.00 in0.0 mm 0.00 in0.0 mm
09:00 AM 75.0°F23.9°C 59.7°F15.4°C 59% 2.2 mph S3.5 kmh S 4.5 mph7.2 kmh 30.33 in1027.1 mb 0.00 in0.0 mm 0.00 in0.0 mm 0.00 in0.0 mm
09:15 AM 75.9°F24.4°C 58.1°F14.5°C 54% 0.7 mph SSW1.1 kmh SSW 7.6 mph12.2 kmh 30.32 in1026.8 mb 0.00 in0.0 mm 0.00 in0.0 mm 0.00 in0.0 mm
09:30 AM 77.4°F25.2°C 58.4°F14.7°C 52% 6.9 mph S11.1 kmh S 9.2 mph14.8 kmh 30.32 in1026.8 mb 0.00 in0.0 mm 0.00 in0.0 mm 0.00 in0.0 mm
09:45 AM 78.1°F25.6°C 57.9°F14.4°C 50% 2.2 mph S3.5 kmh S 8.3 mph13.4 kmh 30.32 in1026.8 mb 0.00 in0.0 mm 0.00 in0.0 mm 0.00 in0.0 mm
10:00 AM 78.6°F25.9°C 57.3°F14.1°C 48% 6.0 mph S9.7 kmh S 9.2 mph14.8 kmh 30.32 in1026.8 mb 0.00 in0.0 mm 0.00 in0.0 mm 0.00 in0.0 mm
10:15 AM 79.3°F26.3°C 56.2°F13.4°C 45% 5.4 mph S8.7 kmh S 15.2 mph24.5 kmh 30.32 in1026.8 mb 0.00 in0.0 mm 0.00 in0.0 mm 0.00 in0.0 mm
10:30 AM 80.2°F26.8°C 56.3°F13.5°C 44% 6.0 mph S9.7 kmh S 12.1 mph19.5 kmh 30.31 in1026.4 mb 0.00 in0.0 mm 0.00 in0.0 mm 0.00 in0.0 mm
10:45 AM 80.2°F26.8°C 56.3°F13.5°C 44% 3.8 mph S6.1 kmh S 13.6 mph21.9 kmh 30.32 in1026.8 mb 0.00 in0.0 mm 0.00 in0.0 mm 0.00 in0.0 mm
11:00 AM 80.4°F26.9°C 56.5°F13.6°C 44% 6.0 mph SSW9.7 kmh SSW 11.4 mph18.3 kmh 30.32 in1026.8 mb 0.00 in0.0 mm 0.00 in0.0 mm 0.00 in0.0 mm
11:15 AM 80.8°F27.1°C 56.2°F13.4°C 43% 3.8 mph SW6.1 kmh SW 12.1 mph19.5 kmh 30.31 in1026.4 mb 0.00 in0.0 mm 0.00 in0.0 mm 0.00 in0.0 mm
11:30 AM 81.0°F27.2°C 56.4°F13.6°C 43% 7.6 mph WSW12.2 kmh WSW 16.8 mph27.0 kmh 30.30 in1026.1 mb 0.00 in0.0 mm 0.00 in0.0 mm 0.00 in0.0 mm
11:45 AM 81.9°F27.7°C 53.8°F12.1°C 38% 4.5 mph SSW7.2 kmh SSW 14.5 mph23.3 kmh 30.31 in1026.4 mb 0.00 in0.0 mm 0.00 in0.0 mm 0.00 in0.0 mm
12:00 PM 81.7°F27.6°C 52.9°F11.6°C 37% 6.0 mph S9.7 kmh S 13.6 mph21.9 kmh 30.30 in1026.1 mb 0.00 in0.0 mm 0.00 in0.0 mm 0.00 in0.0 mm
12:15 PM 82.0°F27.8°C 53.2°F11.8°C 37% 6.9 mph S11.1 kmh S 13.0 mph20.9 kmh 30.31 in1026.4 mb 0.00 in0.0 mm 0.00 in0.0 mm 0.00 in0.0 mm
12:30 PM 82.4°F28.0°C 52.8°F11.6°C 36% 5.4 mph S8.7 kmh S 9.8 mph15.8 kmh 30.30 in1026.1 mb 0.00 in0.0 mm 0.00 in0.0 mm 0.00 in0.0 mm
12:45 PM 81.9°F27.7°C 53.0°F11.7°C 37% 6.0 mph SW9.7 kmh SW 10.7 mph17.2 kmh 30.30 in1026.1 mb 0.00 in0.0 mm 0.00 in0.0 mm 0.00 in0.0 mm
01:00 PM 82.2°F27.9°C 53.4°F11.9°C 37% 10.7 mph SW17.2 kmh SW 13.0 mph20.9 kmh 30.30 in1026.1 mb 0.00 in0.0 mm 0.00 in0.0 mm 0.00 in0.0 mm
01:15 PM 83.3°F28.5°C 52.0°F11.1°C 34% 8.3 mph SSW13.4 kmh SSW 13.6 mph21.9 kmh 30.29 in1025.7 mb 0.00 in0.0 mm 0.00 in0.0 mm 0.00 in0.0 mm
01:30 PM 84.4°F29.1°C 53.7°F12.1°C 35% 4.5 mph SSW7.2 kmh SSW 9.8 mph15.8 kmh 30.30 in1026.1 mb 0.00 in0.0 mm 0.00 in0.0 mm 0.00 in0.0 mm
01:45 PM 84.0°F28.9°C 51.8°F11.0°C 33% 4.5 mph SW7.2 kmh SW 10.7 mph17.2 kmh 30.28 in1025.4 mb 0.00 in0.0 mm 0.00 in0.0 mm 0.00 in0.0 mm
02:00 PM 84.6°F29.2°C 51.5°F10.8°C 32% 6.9 mph SSW11.1 kmh SSW 13.6 mph21.9 kmh 30.28 in1025.4 mb 0.00 in0.0 mm 0.00 in0.0 mm 0.00 in0.0 mm
02:15 PM 83.7°F28.7°C 51.5°F10.8°C 33% 2.2 mph SSW3.5 kmh SSW 13.0 mph20.9 kmh 30.28 in1025.4 mb 0.00 in0.0 mm 0.00 in0.0 mm 0.00 in0.0 mm
02:30 PM 84.7°F29.3°C 51.6°F10.9°C 32% 4.5 mph SW7.2 kmh SW 12.1 mph19.5 kmh 30.28 in1025.4 mb 0.00 in0.0 mm 0.00 in0.0 mm 0.00 in0.0 mm
02:45 PM 85.1°F29.5°C 51.9°F11.1°C 32% 5.4 mph SW8.7 kmh SW 9.8 mph15.8 kmh 30.27 in1025.1 mb 0.00 in0.0 mm 0.00 in0.0 mm 0.00 in0.0 mm
03:00 PM 85.1°F29.5°C 51.9°F11.1°C 32% 5.4 mph SW8.7 kmh SW 13.6 mph21.9 kmh 30.27 in1025.1 mb 0.00 in0.0 mm 0.00 in0.0 mm 0.00 in0.0 mm
03:15 PM 84.9°F29.4°C 51.8°F11.0°C 32% 3.8 mph S6.1 kmh S 10.7 mph17.2 kmh 30.26 in1024.7 mb 0.00 in0.0 mm 0.00 in0.0 mm 0.00 in0.0 mm
03:30 PM 85.5°F29.7°C 52.2°F11.2°C 32% 3.1 mph SSW5.0 kmh SSW 12.1 mph19.5 kmh 30.25 in1024.4 mb 0.00 in0.0 mm 0.00 in0.0 mm 0.00 in0.0 mm
03:45 PM 84.9°F29.4°C 51.8°F11.0°C 32% 4.5 mph SSW7.2 kmh SSW 9.2 mph14.8 kmh 30.25 in1024.4 mb 0.00 in0.0 mm 0.00 in0.0 mm 0.00 in0.0 mm
04:00 PM 84.0°F28.9°C 51.0°F10.6°C 32% 3.8 mph SSW6.1 kmh SSW 12.1 mph19.5 kmh 30.25 in1024.4 mb 0.00 in0.0 mm 0.00 in0.0 mm 0.00 in0.0 mm
04:15 PM 84.2°F29.0°C 51.1°F10.6°C 32% 9.2 mph SSW14.8 kmh SSW 14.5 mph23.3 kmh 30.24 in1024.0 mb 0.00 in0.0 mm 0.00 in0.0 mm 0.00 in0.0 mm
04:30 PM 83.3°F28.5°C 51.2°F10.7°C 33% 4.5 mph S7.2 kmh S 9.8 mph15.8 kmh 30.25 in1024.4 mb 0.00 in0.0 mm 0.00 in0.0 mm 0.00 in0.0 mm
04:45 PM 83.1°F28.4°C 51.0°F10.6°C 33% 4.5 mph SSW7.2 kmh SSW 8.3 mph13.4 kmh 30.24 in1024.0 mb 0.00 in0.0 mm 0.00 in0.0 mm 0.00 in0.0 mm
05:00 PM 82.9°F28.3°C 50.9°F10.5°C 33% 3.8 mph SSW6.1 kmh SSW 12.1 mph19.5 kmh 30.24 in1024.0 mb 0.00 in0.0 mm 0.00 in0.0 mm 0.00 in0.0 mm
05:15 PM 83.3°F28.5°C 51.2°F10.7°C 33% 3.1 mph S5.0 kmh S 9.2 mph14.8 kmh 30.24 in1024.0 mb 0.00 in0.0 mm 0.00 in0.0 mm 0.00 in0.0 mm
05:30 PM 83.1°F28.4°C 51.8°F11.0°C 34% 4.5 mph S7.2 kmh S 12.1 mph19.5 kmh 30.24 in1024.0 mb 0.00 in0.0 mm 0.00 in0.0 mm 0.00 in0.0 mm
05:45 PM 82.8°F28.2°C 51.5°F10.8°C 34% 6.9 mph SSW11.1 kmh SSW 10.7 mph17.2 kmh 30.23 in1023.7 mb 0.00 in0.0 mm 0.00 in0.0 mm 0.00 in0.0 mm
06:00 PM 82.0°F27.8°C 51.7°F10.9°C 35% 3.8 mph S6.1 kmh S 8.3 mph13.4 kmh 30.24 in1024.0 mb 0.00 in0.0 mm 0.00 in0.0 mm 0.00 in0.0 mm
06:15 PM 80.8°F27.1°C 54.2°F12.3°C 40% 3.1 mph SSW5.0 kmh SSW 6.9 mph11.1 kmh 30.25 in1024.4 mb 0.00 in0.0 mm 0.00 in0.0 mm 0.00 in0.0 mm
06:30 PM 79.7°F26.5°C 54.6°F12.6°C 42% Calm Calm 4.5 mph7.2 kmh 30.25 in1024.4 mb 0.00 in0.0 mm 0.00 in0.0 mm 0.00 in0.0 mm
06:45 PM 78.4°F25.8°C 54.1°F12.3°C 43% 0.7 mph S1.1 kmh S 3.1 mph5.0 kmh 30.24 in1024.0 mb 0.00 in0.0 mm 0.00 in0.0 mm 0.00 in0.0 mm
07:00 PM 77.5°F25.3°C 54.5°F12.5°C 45% 0.7 mph S1.1 kmh S 1.6 mph2.6 kmh 30.25 in1024.4 mb 0.00 in0.0 mm 0.00 in0.0 mm 0.00 in0.0 mm
07:15 PM 75.7°F24.3°C 55.8°F13.2°C 50% 0.7 mph S1.1 kmh S 1.6 mph2.6 kmh 30.24 in1024.0 mb 0.00 in0.0 mm 0.00 in0.0 mm 0.00 in0.0 mm
07:30 PM 74.7°F23.7°C 55.3°F12.9°C 51% 0.7 mph S1.1 kmh S 1.6 mph2.6 kmh 30.25 in1024.4 mb 0.00 in0.0 mm 0.00 in0.0 mm 0.00 in0.0 mm
07:45 PM 73.6°F23.1°C 55.4°F13.0°C 53% Calm Calm 1.6 mph2.6 kmh 30.24 in1024.0 mb 0.00 in0.0 mm 0.00 in0.0 mm 0.00 in0.0 mm
08:00 PM 72.7°F22.6°C 55.6°F13.1°C 55% Calm Calm 0.7 mph1.1 kmh 30.24 in1024.0 mb 0.00 in0.0 mm 0.00 in0.0 mm 0.00 in0.0 mm
08:15 PM 71.6°F22.0°C 57.4°F14.1°C 61% 0.7 mph S1.1 kmh S 1.6 mph2.6 kmh 30.24 in1024.0 mb 0.00 in0.0 mm 0.00 in0.0 mm 0.00 in0.0 mm
08:30 PM 70.9°F21.6°C 56.8°F13.8°C 61% Calm Calm 0.7 mph1.1 kmh 30.24 in1024.0 mb 0.00 in0.0 mm 0.00 in0.0 mm 0.00 in0.0 mm
08:45 PM 70.3°F21.3°C 57.1°F13.9°C 63% 0.7 mph S1.1 kmh S 1.6 mph2.6 kmh 30.24 in1024.0 mb 0.00 in0.0 mm 0.00 in0.0 mm 0.00 in0.0 mm
09:00 PM 70.0°F21.1°C 57.2°F14.0°C 64% 0.7 mph S1.1 kmh S 1.6 mph2.6 kmh 30.23 in1023.7 mb 0.00 in0.0 mm 0.00 in0.0 mm 0.00 in0.0 mm
09:15 PM 69.4°F20.8°C 57.6°F14.2°C 66% 3.1 mph S5.0 kmh S 3.8 mph6.1 kmh 30.24 in1024.0 mb 0.00 in0.0 mm 0.00 in0.0 mm 0.00 in0.0 mm
09:30 PM 70.0°F21.1°C 56.4°F13.6°C 62% 5.4 mph N8.7 kmh N 11.4 mph18.3 kmh 30.24 in1024.0 mb 0.00 in0.0 mm 0.00 in0.0 mm 0.00 in0.0 mm
09:45 PM 70.2°F21.2°C 56.5°F13.6°C 62% 3.1 mph NE5.0 kmh NE 5.4 mph8.7 kmh 30.24 in1024.0 mb 0.00 in0.0 mm 0.00 in0.0 mm 0.00 in0.0 mm
10:00 PM 69.8°F21.0°C 56.2°F13.4°C 62% 3.1 mph NE5.0 kmh NE 7.6 mph12.2 kmh 30.24 in1024.0 mb 0.00 in0.0 mm 0.00 in0.0 mm 0.00 in0.0 mm
10:15 PM 69.3°F20.7°C 56.6°F13.7°C 64% 5.4 mph NNE8.7 kmh NNE 7.6 mph12.2 kmh 30.24 in1024.0 mb 0.00 in0.0 mm 0.00 in0.0 mm 0.00 in0.0 mm
10:30 PM 68.9°F20.5°C 56.6°F13.7°C 65% 4.5 mph NE7.2 kmh NE 6.0 mph9.7 kmh 30.25 in1024.4 mb 0.00 in0.0 mm 0.00 in0.0 mm 0.00 in0.0 mm
10:45 PM 68.4°F20.2°C 57.0°F13.9°C 67% 3.8 mph NE6.1 kmh NE 5.4 mph8.7 kmh 30.24 in1024.0 mb 0.00 in0.0 mm 0.00 in0.0 mm 0.00 in0.0 mm
11:00 PM 68.0°F20.0°C 57.0°F13.9°C 68% 0.7 mph NE1.1 kmh NE 6.9 mph11.1 kmh 30.24 in1024.0 mb 0.00 in0.0 mm 0.00 in0.0 mm 0.00 in0.0 mm
11:15 PM 67.6°F19.8°C 57.5°F14.2°C 70% 3.1 mph NE5.0 kmh NE 4.5 mph7.2 kmh 30.25 in1024.4 mb 0.00 in0.0 mm 0.00 in0.0 mm 0.00 in0.0 mm
11:30 PM 67.3°F19.6°C 57.2°F14.0°C 70% 2.2 mph NE3.5 kmh NE 3.1 mph5.0 kmh 30.24 in1024.0 mb 0.00 in0.0 mm 0.00 in0.0 mm 0.00 in0.0 mm
11:45 PM 66.7°F19.3°C 57.0°F13.9°C 71% 1.6 mph NE2.6 kmh NE 2.2 mph3.5 kmh 30.24 in1024.0 mb 0.00 in0.0 mm 0.00 in0.0 mm 0.00 in0.0 mm